Bei Facebook empfehlenBei Twitter postenGoogle plusPinterest

Das Wetter im Erzgebirge am 15.08.2015

Wetter und Klima am 15.08.2015 Holzhau im Erzgebirge (630m ü.NN)
Letzte gemessene Temperatur und Uhrzeit der Messung23:45:00 Uhr15.20 °C
Temperatur (Maximum / Höchstwert) und Uhrzeit der Messung12:30:00 Uhr28.40 °C
Temperatur (Minimum / Tiefstwert) und Uhrzeit der Messung06:30:0014.40 °C
Errechneter Absolutwert der Temperaturschwankungen zwischen Tmin und Tmax des Tages14.00 K
Errechnete Tagesmitteltemperatur20.78750 °C
Gesamt - Niederschlag des Tages (in flüssiger Form)1.55 Liter / m²
Luftdruck (Maximum / Höchstwert) und Zeitpunkt der Messung23:15:00 Uhr1011.00 hPa
Luftdruck (Minimum / Tiefstwert) und Zeitpunkt der Messung03:30:00 Uhr1007.80 hPa
Errechneter Absolutwert der Luftdruckschwankungen des Tages3.20 hPa
Höchste gemessene Windgeschwindigkeit und Uhrzeit der Messung23:45:00 Uhr0.00 km/h
Errechnete Windhäufigkeit in Relation zu den Messwerten des Tages0.00000 %
Niedrigste Windkühle (Windchill) und Zeitpunkt der Messung06:30:00 Uhr14.40 °C
Taupunkt (Maximum / Höchstwert) und Uhrzeit der Messung10:15:00 Uhr19.10 °C
Taupunkt (Minimum / Tiefstwert) und Uhrzeit der Messung06:15:0013.00 °C
Anzahl der automatisch eingelesenen Messwerte 96

Detaillierte Wetter- und Klima- Messwerte für den 15.08.2015 in Holzhau im Erzgebirge (630m ü.NN)
ZeitTemperaturLuftdruckRel. LuftfeuchteWindWindrichtungWindchillTaupunktNiederschlag l/m²
23:45:0015.20 °C1010.80 hPa87.00 %13.10 °C1.55
23:30:0015.50 °C1010.70 hPa87.00 %13.30 °C1.55
23:15:0015.60 °C1011.00 hPa86.00 %13.30 °C1.55
23:00:0015.80 °C1010.90 hPa85.00 %13.30 °C1.55
22:45:0015.90 °C1010.80 hPa84.00 %13.20 °C1.55
22:30:0016.20 °C1011.00 hPa83.00 %13.30 °C1.55
22:15:0016.50 °C1010.90 hPa82.00 %13.40 °C1.55
22:00:0016.90 °C1010.90 hPa81.00 %13.60 °C1.55
21:45:0017.30 °C1010.60 hPa79.00 %13.60 °C1.55
21:30:0017.70 °C1010.80 hPa78.00 %13.80 °C1.55
21:15:0018.30 °C1010.70 hPa75.00 %13.80 °C1.55
21:00:0019.10 °C1010.60 hPa72.00 %13.90 °C1.55
20:45:0020.10 °C1010.40 hPa69.00 %14.20 °C1.55
20:30:0021.40 °C1010.30 hPa65.00 %14.60 °C1.55
20:15:0022.70 °C1010.10 hPa63.00 %15.30 °C1.55
20:00:0023.80 °C1010.10 hPa60.00 %15.60 °C1.55
19:45:0024.50 °C1009.90 hPa58.00 %15.70 °C1.55
19:30:0025.40 °C1010.00 hPa57.00 %16.30 °C1.55
19:15:0026.10 °C1009.70 hPa57.00 %16.90 °C1.55
19:00:0026.20 °C1009.90 hPa56.00 %16.70 °C1.55
18:45:0026.90 °C1009.90 hPa56.00 %17.40 °C1.55
18:30:0027.20 °C1010.00 hPa53.00 %16.80 °C1.55
18:15:0027.60 °C1010.00 hPa55.00 %17.70 °C1.55
18:00:0027.60 °C1009.90 hPa56.00 %18.00 °C1.55
17:45:0027.40 °C1009.70 hPa57.00 %18.10 °C1.55
17:30:0027.40 °C1009.80 hPa58.00 %18.40 °C1.55
17:15:0027.50 °C1009.70 hPa59.00 %18.80 °C1.55
17:00:0026.30 °C1009.70 hPa62.00 %18.40 °C1.55
16:45:0026.20 °C1009.80 hPa63.00 %18.60 °C1.55
16:30:0025.40 °C1009.90 hPa64.00 %18.10 °C1.55
16:15:0025.10 °C1009.90 hPa67.00 %18.50 °C1.55
16:00:0024.30 °C1010.00 hPa66.00 %17.50 °C1.55
15:45:0024.30 °C1009.90 hPa65.00 %17.30 °C1.55
15:30:0024.90 °C1010.00 hPa63.00 %17.40 °C1.55
15:15:0025.90 °C1009.80 hPa61.00 %17.80 °C1.55
15:00:0026.30 °C1009.70 hPa61.00 %18.20 °C1.55
14:45:0025.80 °C1009.80 hPa63.00 %18.20 °C1.55
14:30:0025.00 °C1010.00 hPa64.00 %17.70 °C1.55
14:15:0024.20 °C1010.00 hPa65.00 %17.20 °C1.55
14:00:0023.90 °C1009.90 hPa63.00 %16.40 °C1.55
13:45:0024.70 °C1009.90 hPa61.00 %16.70 °C1.55
13:30:0025.40 °C1009.80 hPa59.00 %16.80 °C1.55
13:15:0026.40 °C1009.80 hPa58.00 %17.50 °C1.55
13:00:0027.20 °C1009.70 hPa55.00 %17.40 °C1.55
12:45:0027.80 °C1009.60 hPa55.00 %17.90 °C1.55
12:30:0028.40 °C1009.80 hPa55.00 %18.50 °C1.55
12:15:0027.90 °C1009.60 hPa56.00 %18.30 °C1.55
12:00:0027.10 °C1009.70 hPa59.00 %18.40 °C1.55
11:45:0026.70 °C1009.70 hPa59.00 %18.00 °C1.55
11:30:0026.10 °C1009.80 hPa58.00 %17.20 °C1.55
11:15:0026.40 °C1009.70 hPa60.00 %18.00 °C1.55
11:00:0026.10 °C1009.80 hPa64.00 %18.80 °C1.55
10:45:0025.30 °C1009.90 hPa68.00 %19.00 °C1.55
10:30:0024.60 °C1009.80 hPa71.00 %19.00 °C1.55
10:15:0023.60 °C1009.80 hPa76.00 %19.10 °C1.55
10:00:0022.80 °C1009.70 hPa79.00 %19.00 °C1.55
09:45:0022.10 °C1009.70 hPa83.00 %19.10 °C1.55
09:30:0021.40 °C1009.70 hPa87.00 %19.10 °C1.55
09:15:0020.80 °C1009.70 hPa88.00 %18.70 °C1.55
09:00:0020.10 °C1009.70 hPa89.00 %18.20 °C1.55
08:45:0019.60 °C1009.50 hPa90.00 %17.90 °C1.55
08:30:0018.90 °C1009.60 hPa91.00 %17.40 °C1.55
08:15:0018.40 °C1009.40 hPa91.00 %16.90 °C1.55
08:00:0017.50 °C1009.30 hPa92.00 %16.20 °C1.55
07:45:0016.40 °C1009.00 hPa92.00 %15.10 °C1.55
07:30:0015.60 °C1009.10 hPa92.00 %14.30 °C1.55
07:15:0014.90 °C1009.20 hPa92.00 %13.60 °C1.55
07:00:0014.80 °C1009.20 hPa92.00 %13.50 °C1.55
06:45:0014.60 °C1009.10 hPa92.00 %13.30 °C1.55
06:30:0014.40 °C1008.90 hPa92.00 %13.10 °C1.55
06:15:0014.50 °C1008.90 hPa91.00 %13.00 °C1.55
06:00:0014.70 °C1008.80 hPa91.00 %13.20 °C1.55
05:45:0014.60 °C1009.00 hPa91.00 %13.10 °C1.55
05:30:0014.50 °C1008.90 hPa91.00 %13.00 °C1.55
05:15:0014.70 °C1008.80 hPa91.00 %13.20 °C1.55
05:00:0014.90 °C1008.60 hPa90.00 %13.30 °C1.55
04:45:0015.30 °C1008.50 hPa90.00 %13.70 °C1.55
04:30:0015.80 °C1008.00 hPa90.00 %14.20 °C1.55
04:15:0015.90 °C1008.20 hPa90.00 %14.30 °C1.55
04:00:0016.10 °C1008.20 hPa91.00 %14.60 °C1.55
03:45:0016.40 °C1008.20 hPa91.00 %14.90 °C1.55
03:30:0016.60 °C1007.80 hPa91.00 %15.10 °C1.55
03:15:0016.80 °C1007.90 hPa90.00 %15.20 °C1.55
03:00:0017.00 °C1007.90 hPa90.00 %15.30 °C1.03
02:45:0017.30 °C1009.30 hPa90.00 %15.60 °C1.03
02:30:0017.40 °C1010.10 hPa90.00 %15.70 °C 
02:15:0017.20 °C1010.40 hPa90.00 %15.50 °C 
02:00:0017.10 °C1009.90 hPa90.00 %15.40 °C 
01:45:0017.10 °C1010.20 hPa90.00 %15.40 °C 
01:30:0016.90 °C1010.10 hPa91.00 %15.40 °C 
01:15:0016.40 °C1009.00 hPa90.00 %14.80 °C 
01:00:0016.40 °C1007.90 hPa90.00 %14.80 °C 
00:45:0016.40 °C1007.90 hPa90.00 %14.80 °C 
00:30:0016.60 °C1007.90 hPa89.00 %14.80 °C 
00:15:0016.70 °C1008.10 hPa89.00 %14.90 °C 
00:00:0016.90 °C1008.20 hPa88.00 %14.90 °C 

Permanenter Link zu dieser Seite: Wetter im Erzgebirge am 15.08.2015
Performance-Info: Die Erstellung der Seite / Statistik(en) / Tabelle(n) erforderte 5 Datenbankserver-Abfrage(n) und dauerte 122 Millisekunden. (Dieser Messwert ist von der Gesamt-Auslastung des Servers abhängig.)
Erzgebirge - Wetter | Erzgebirge - Wetter (Mobilgeräte) | Komplette Klimadatenbank